Time,TemperatureF,DewpointF,PressureIn,WindDirection,WindDirectionDegrees,WindSpeedMPH,WindSpeedGustMPH,Humidity,HourlyPrecipIn,Conditions,Clouds,dailyrainin,SoftwareType,DateUTC
2013-04-27 00:03:00,42.0,36.0,30.36,WNW,294,0.0,0.0,78,0.00,,,0.00,,2013-04-27 04:03:00,
2013-04-27 00:13:00,42.0,36.0,30.36,WNW,294,0.0,0.0,78,0.00,,,0.00,,2013-04-27 04:13:00,
2013-04-27 00:23:00,41.0,36.0,30.36,WNW,294,0.0,0.0,82,0.00,,,0.00,,2013-04-27 04:23:00,
2013-04-27 00:33:00,41.0,36.0,30.36,WNW,294,0.0,0.0,82,0.00,,,0.00,,2013-04-27 04:33:00,
2013-04-27 00:43:00,41.0,36.0,30.36,WNW,294,0.0,0.0,82,0.00,,,0.00,,2013-04-27 04:43:00,
2013-04-27 00:53:00,40.0,35.0,30.37,WNW,294,0.0,0.0,83,0.00,,,0.00,,2013-04-27 04:53:00,
2013-04-27 01:02:00,40.0,35.0,30.37,WNW,294,0.0,0.0,83,0.00,,,0.00,,2013-04-27 05:02:00,
2013-04-27 01:12:00,40.0,35.0,30.37,WNW,294,0.0,0.0,83,0.00,,,0.00,,2013-04-27 05:12:00,
2013-04-27 01:22:00,40.0,36.0,30.37,WNW,294,0.0,0.0,85,0.00,,,0.00,,2013-04-27 05:22:00,
2013-04-27 01:32:00,40.0,36.0,30.37,WNW,294,0.0,0.0,85,0.00,,,0.00,,2013-04-27 05:32:00,
2013-04-27 01:42:00,40.0,36.0,30.37,WNW,294,0.0,0.0,85,0.00,,,0.00,,2013-04-27 05:42:00,
2013-04-27 01:52:00,39.0,35.0,30.37,WNW,294,0.0,0.0,86,0.00,,,0.00,,2013-04-27 05:52:00,
2013-04-27 02:02:00,39.0,35.0,30.37,WNW,294,0.0,0.0,86,0.00,,,0.00,,2013-04-27 06:02:00,
2013-04-27 02:12:00,39.0,35.0,30.37,WNW,294,0.0,0.0,86,0.00,,,0.00,,2013-04-27 06:12:00,
2013-04-27 02:22:00,38.0,34.0,30.37,WNW,294,0.0,0.0,87,0.00,,,0.00,,2013-04-27 06:22:00,
2013-04-27 02:32:00,38.0,34.0,30.37,WNW,294,0.0,0.0,87,0.00,,,0.00,,2013-04-27 06:32:00,
2013-04-27 02:42:00,38.0,34.0,30.37,WNW,294,0.0,0.0,87,0.00,,,0.00,,2013-04-27 06:42:00,
2013-04-27 02:52:00,38.0,35.0,30.36,WNW,294,0.0,0.0,89,0.00,,,0.00,,2013-04-27 06:52:00,
2013-04-27 03:01:00,38.0,35.0,30.36,WNW,294,0.0,0.0,89,0.00,,,0.00,,2013-04-27 07:01:00,
2013-04-27 03:11:00,38.0,35.0,30.36,WNW,294,0.0,0.0,89,0.00,,,0.00,,2013-04-27 07:11:00,
2013-04-27 03:21:00,37.0,34.0,30.36,WNW,294,0.0,0.0,89,0.00,,,0.00,,2013-04-27 07:21:00,
2013-04-27 03:32:00,37.0,34.0,30.36,WNW,294,0.0,0.0,89,0.00,,,0.00,,2013-04-27 07:32:00,
2013-04-27 03:42:00,37.0,34.0,30.36,WNW,294,0.0,0.0,89,0.00,,,0.00,,2013-04-27 07:42:00,
2013-04-27 03:52:00,37.0,34.0,30.36,WNW,294,0.0,0.0,90,0.00,,,0.00,,2013-04-27 07:52:00,
2013-04-27 04:01:00,37.0,34.0,30.36,WNW,294,0.0,0.0,90,0.00,,,0.00,,2013-04-27 08:01:00,
2013-04-27 04:12:00,37.0,34.0,30.36,WNW,294,0.0,0.0,90,0.00,,,0.00,,2013-04-27 08:12:00,
2013-04-27 04:21:00,36.0,33.0,30.36,WNW,294,0.0,0.0,90,0.00,,,0.00,,2013-04-27 08:21:00,
2013-04-27 04:33:00,36.0,33.0,30.36,WNW,294,0.0,0.0,90,0.00,,,0.00,,2013-04-27 08:33:00,
2013-04-27 04:42:00,36.0,33.0,30.36,WNW,294,0.0,0.0,90,0.00,,,0.00,,2013-04-27 08:42:00,
2013-04-27 04:52:00,36.0,33.0,30.36,WNW,294,0.0,0.0,90,0.00,,,0.00,,2013-04-27 08:52:00,
2013-04-27 05:01:00,36.0,33.0,30.36,WNW,294,0.0,0.0,90,0.00,,,0.00,,2013-04-27 09:01:00,
2013-04-27 05:11:00,36.0,33.0,30.36,WNW,294,0.0,0.0,90,0.00,,,0.00,,2013-04-27 09:11:00,
2013-04-27 05:22:00,36.0,33.0,30.36,WNW,294,0.0,0.0,90,0.00,,,0.00,,2013-04-27 09:22:00,
2013-04-27 05:33:00,36.0,33.0,30.36,WNW,294,0.0,0.0,90,0.00,,,0.00,,2013-04-27 09:33:00,
2013-04-27 05:43:00,36.0,33.0,30.36,WNW,294,0.0,0.0,90,0.00,,,0.00,,2013-04-27 09:43:00,
2013-04-27 05:53:00,35.0,33.0,30.36,WNW,293,0.0,0.0,91,0.00,,,0.00,,2013-04-27 09:53:00,
2013-04-27 06:03:00,35.0,33.0,30.36,WNW,293,0.0,0.0,91,0.00,,,0.00,,2013-04-27 10:03:00,
2013-04-27 06:12:00,35.0,33.0,30.36,WNW,293,0.0,0.0,91,0.00,,,0.00,,2013-04-27 10:12:00,
2013-04-27 06:22:00,35.0,33.0,30.36,WNW,293,0.0,0.0,91,0.00,,,0.00,,2013-04-27 10:22:00,
2013-04-27 06:33:00,35.0,33.0,30.36,WNW,293,0.0,0.0,91,0.00,,,0.00,,2013-04-27 10:33:00,
2013-04-27 06:42:00,35.0,33.0,30.36,WNW,293,0.0,0.0,91,0.00,,,0.00,,2013-04-27 10:42:00,
2013-04-27 06:52:00,34.0,32.0,30.36,WNW,293,0.0,0.0,91,0.00,,,0.00,,2013-04-27 10:52:00,
2013-04-27 07:02:00,34.0,32.0,30.36,WNW,293,0.0,0.0,91,0.00,,,0.00,,2013-04-27 11:02:00,
2013-04-27 07:12:00,34.0,32.0,30.36,WNW,293,0.0,0.0,91,0.00,,,0.00,,2013-04-27 11:12:00,
2013-04-27 07:22:00,34.0,32.0,30.37,WNW,293,0.0,0.0,91,0.00,,,0.00,,2013-04-27 11:22:00,
2013-04-27 07:32:00,34.0,32.0,30.37,WNW,293,0.0,0.0,91,0.00,,,0.00,,2013-04-27 11:32:00,
2013-04-27 07:42:00,34.0,32.0,30.37,WNW,293,0.0,0.0,91,0.00,,,0.00,,2013-04-27 11:42:00,
2013-04-27 07:52:00,35.0,33.0,30.37,WNW,293,0.0,0.0,93,0.00,,,0.00,,2013-04-27 11:52:00,
2013-04-27 08:01:00,35.0,33.0,30.37,WNW,293,0.0,0.0,93,0.00,,,0.00,,2013-04-27 12:01:00,
2013-04-27 08:11:00,35.0,33.0,30.37,WNW,293,0.0,0.0,93,0.00,,,0.00,,2013-04-27 12:11:00,
2013-04-27 08:22:00,40.0,39.0,30.38,NNE,27,0.0,0.0,95,0.00,,,0.00,,2013-04-27 12:22:00,
2013-04-27 08:32:00,40.0,39.0,30.38,NNE,27,0.0,0.0,95,0.00,,,0.00,,2013-04-27 12:32:00,
2013-04-27 08:42:00,40.0,39.0,30.38,NNE,27,0.0,0.0,95,0.00,,,0.00,,2013-04-27 12:42:00,
2013-04-27 08:52:00,47.0,45.0,30.38,NE,38,1.0,4.0,94,0.00,,,0.00,,2013-04-27 12:52:00,
2013-04-27 09:02:00,47.0,45.0,30.38,NE,38,1.0,4.0,94,0.00,,,0.00,,2013-04-27 13:02:00,
2013-04-27 09:12:00,47.0,45.0,30.38,NE,38,1.0,4.0,94,0.00,,,0.00,,2013-04-27 13:12:00,
2013-04-27 09:22:00,53.0,44.0,30.38,NE,50,2.0,8.0,71,0.00,,,0.00,,2013-04-27 13:22:00,
2013-04-27 09:32:00,53.0,44.0,30.38,NE,50,2.0,8.0,71,0.00,,,0.00,,2013-04-27 13:32:00,
2013-04-27 09:42:00,53.0,44.0,30.38,NE,50,2.0,8.0,71,0.00,,,0.00,,2013-04-27 13:42:00,
2013-04-27 09:52:00,58.0,42.0,30.38,ENE,67,4.0,5.0,56,0.00,,,0.00,,2013-04-27 13:52:00,
2013-04-27 10:02:00,58.0,42.0,30.38,ENE,67,4.0,5.0,56,0.00,,,0.00,,2013-04-27 14:02:00,
2013-04-27 10:11:00,58.0,42.0,30.38,ENE,67,4.0,5.0,56,0.00,,,0.00,,2013-04-27 14:11:00,
2013-04-27 10:21:00,61.0,43.0,30.37,NE,53,0.0,4.0,51,0.00,,,0.00,,2013-04-27 14:21:00,
2013-04-27 10:32:00,61.0,43.0,30.37,NE,53,0.0,4.0,51,0.00,,,0.00,,2013-04-27 14:32:00,
2013-04-27 10:42:00,61.0,43.0,30.37,NE,53,0.0,4.0,51,0.00,,,0.00,,2013-04-27 14:42:00,
2013-04-27 10:52:00,64.0,41.0,30.37,ESE,104,3.0,6.0,43,0.00,,,0.00,,2013-04-27 14:52:00,
2013-04-27 11:01:00,64.0,41.0,30.37,ESE,104,3.0,6.0,43,0.00,,,0.00,,2013-04-27 15:01:00,
2013-04-27 11:12:00,64.0,41.0,30.37,ESE,104,3.0,6.0,43,0.00,,,0.00,,2013-04-27 15:12:00,
2013-04-27 11:22:00,65.0,40.0,30.37,ENE,65,5.0,8.0,40,0.00,,,0.00,,2013-04-27 15:22:00,
2013-04-27 11:33:00,65.0,40.0,30.37,ENE,65,5.0,8.0,40,0.00,,,0.00,,2013-04-27 15:33:00,
2013-04-27 11:43:00,65.0,40.0,30.37,ENE,65,5.0,8.0,40,0.00,,,0.00,,2013-04-27 15:43:00,
2013-04-27 11:53:00,66.0,42.0,30.35,ENE,60,2.0,8.0,41,0.00,,,0.00,,2013-04-27 15:53:00,
2013-04-27 12:03:00,66.0,42.0,30.35,ENE,60,2.0,8.0,41,0.00,,,0.00,,2013-04-27 16:03:00,
2013-04-27 12:13:00,66.0,42.0,30.35,ENE,60,2.0,8.0,41,0.00,,,0.00,,2013-04-27 16:13:00,
2013-04-27 12:22:00,66.0,41.0,30.35,South,186,3.0,7.0,40,0.00,,,0.00,,2013-04-27 16:22:00,
2013-04-27 12:33:00,66.0,41.0,30.35,South,186,3.0,7.0,40,0.00,,,0.00,,2013-04-27 16:33:00,
2013-04-27 12:42:00,66.0,41.0,30.35,South,186,3.0,7.0,40,0.00,,,0.00,,2013-04-27 16:42:00,
2013-04-27 12:53:00,68.0,43.0,30.34,SSE,152,3.0,8.0,40,0.00,,,0.00,,2013-04-27 16:53:00,
2013-04-27 13:02:00,68.0,43.0,30.34,SSE,152,3.0,8.0,40,0.00,,,0.00,,2013-04-27 17:02:00,
2013-04-27 13:12:00,68.0,43.0,30.34,SSE,152,3.0,8.0,40,0.00,,,0.00,,2013-04-27 17:12:00,
2013-04-27 13:22:00,68.0,42.0,30.33,SSE,161,5.0,9.0,39,0.00,,,0.00,,2013-04-27 17:22:00,
2013-04-27 13:32:00,68.0,42.0,30.33,SSE,161,5.0,9.0,39,0.00,,,0.00,,2013-04-27 17:32:00,
2013-04-27 13:42:00,68.0,42.0,30.33,SSE,161,5.0,9.0,39,0.00,,,0.00,,2013-04-27 17:42:00,
2013-04-27 13:53:00,69.0,42.0,30.31,East,101,2.0,6.0,37,0.00,,,0.00,,2013-04-27 17:53:00,
2013-04-27 14:02:00,69.0,42.0,30.31,East,101,2.0,6.0,37,0.00,,,0.00,,2013-04-27 18:02:00,
2013-04-27 14:12:00,69.0,42.0,30.31,East,101,2.0,6.0,37,0.00,,,0.00,,2013-04-27 18:12:00,
2013-04-27 14:22:00,70.0,43.0,30.30,SE,140,0.0,7.0,38,0.00,,,0.00,,2013-04-27 18:22:00,
2013-04-27 14:32:00,70.0,43.0,30.30,SE,140,0.0,7.0,38,0.00,,,0.00,,2013-04-27 18:32:00,
2013-04-27 14:42:00,70.0,43.0,30.30,SE,140,0.0,7.0,38,0.00,,,0.00,,2013-04-27 18:42:00,
2013-04-27 14:52:00,70.0,45.0,30.29,SE,133,1.0,6.0,40,0.00,,,0.00,,2013-04-27 18:52:00,
2013-04-27 15:02:00,70.0,45.0,30.29,SE,133,1.0,6.0,40,0.00,,,0.00,,2013-04-27 19:02:00,
2013-04-27 15:11:00,70.0,45.0,30.29,SE,133,1.0,6.0,40,0.00,,,0.00,,2013-04-27 19:11:00,
2013-04-27 15:22:00,70.0,42.0,30.29,South,170,1.0,11.0,36,0.00,,,0.00,,2013-04-27 19:22:00,
2013-04-27 15:32:00,70.0,42.0,30.29,South,170,1.0,11.0,36,0.00,,,0.00,,2013-04-27 19:32:00,
2013-04-27 15:42:00,70.0,42.0,30.29,South,170,1.0,11.0,36,0.00,,,0.00,,2013-04-27 19:42:00,
2013-04-27 15:53:00,70.0,42.0,30.28,SSE,157,4.0,11.0,36,0.00,,,0.00,,2013-04-27 19:53:00,
2013-04-27 16:02:00,70.0,42.0,30.28,SSE,157,4.0,11.0,36,0.00,,,0.00,,2013-04-27 20:02:00,
2013-04-27 16:11:00,70.0,42.0,30.28,SSE,157,4.0,11.0,36,0.00,,,0.00,,2013-04-27 20:11:00,
2013-04-27 16:22:00,71.0,40.0,30.27,SE,131,3.0,7.0,33,0.00,,,0.00,,2013-04-27 20:22:00,
2013-04-27 16:32:00,71.0,40.0,30.27,SE,131,3.0,7.0,33,0.00,,,0.00,,2013-04-27 20:32:00,
2013-04-27 16:42:00,71.0,40.0,30.27,SE,131,3.0,7.0,33,0.00,,,0.00,,2013-04-27 20:42:00,
2013-04-27 16:52:00,70.0,41.0,30.25,SE,141,2.0,6.0,35,0.00,,,0.00,,2013-04-27 20:52:00,
2013-04-27 17:02:00,70.0,41.0,30.25,SE,141,2.0,6.0,35,0.00,,,0.00,,2013-04-27 21:02:00,
2013-04-27 17:12:00,70.0,41.0,30.25,SE,141,2.0,6.0,35,0.00,,,0.00,,2013-04-27 21:12:00,
2013-04-27 17:21:00,70.0,43.0,30.25,SSE,147,4.0,10.0,38,0.00,,,0.00,,2013-04-27 21:21:00,
2013-04-27 17:33:00,70.0,43.0,30.25,SSE,147,4.0,10.0,38,0.00,,,0.00,,2013-04-27 21:33:00,
2013-04-27 17:43:00,70.0,43.0,30.25,SSE,147,4.0,10.0,38,0.00,,,0.00,,2013-04-27 21:43:00,
2013-04-27 17:53:00,70.0,41.0,30.25,SE,141,1.0,8.0,35,0.00,,,0.00,,2013-04-27 21:53:00,
2013-04-27 18:03:00,70.0,41.0,30.25,SE,141,1.0,8.0,35,0.00,,,0.00,,2013-04-27 22:03:00,
2013-04-27 18:13:00,70.0,41.0,30.25,SE,141,1.0,8.0,35,0.00,,,0.00,,2013-04-27 22:13:00,
2013-04-27 18:23:00,70.0,44.0,30.25,SSE,158,0.0,6.0,39,0.00,,,0.00,,2013-04-27 22:23:00,
2013-04-27 18:32:00,70.0,44.0,30.25,SSE,158,0.0,6.0,39,0.00,,,0.00,,2013-04-27 22:32:00,
2013-04-27 18:42:00,70.0,44.0,30.25,SSE,158,0.0,6.0,39,0.00,,,0.00,,2013-04-27 22:42:00,
2013-04-27 18:53:00,69.0,42.0,30.24,SSE,158,4.0,9.0,37,0.00,,,0.00,,2013-04-27 22:53:00,
2013-04-27 19:02:00,69.0,42.0,30.24,SSE,158,4.0,9.0,37,0.00,,,0.00,,2013-04-27 23:02:00,
2013-04-27 19:12:00,69.0,42.0,30.24,SSE,158,4.0,9.0,37,0.00,,,0.00,,2013-04-27 23:12:00,
2013-04-27 19:22:00,68.0,43.0,30.24,SE,141,0.0,4.0,41,0.00,,,0.00,,2013-04-27 23:22:00,
2013-04-27 19:32:00,68.0,43.0,30.24,SE,141,0.0,4.0,41,0.00,,,0.00,,2013-04-27 23:32:00,
2013-04-27 19:42:00,68.0,43.0,30.24,SE,141,0.0,4.0,41,0.00,,,0.00,,2013-04-27 23:42:00,
2013-04-27 19:52:00,66.0,41.0,30.24,SE,134,0.0,6.0,40,0.00,,,0.00,,2013-04-27 23:52:00,
2013-04-27 20:01:00,66.0,41.0,30.24,SE,134,0.0,6.0,40,0.00,,,0.00,,2013-04-28 00:01:00,
2013-04-27 20:12:00,66.0,41.0,30.24,SE,134,0.0,6.0,40,0.00,,,0.00,,2013-04-28 00:12:00,
2013-04-27 20:22:00,64.0,39.0,30.24,SE,133,0.0,4.0,40,0.00,,,0.00,,2013-04-28 00:22:00,
2013-04-27 20:32:00,64.0,39.0,30.24,SE,133,0.0,4.0,40,0.00,,,0.00,,2013-04-28 00:32:00,
2013-04-27 20:43:00,64.0,39.0,30.24,SE,133,0.0,4.0,40,0.00,,,0.00,,2013-04-28 00:43:00,
2013-04-27 20:52:00,62.0,39.0,30.24,SE,129,1.0,4.0,42,0.00,,,0.00,,2013-04-28 00:52:00,
2013-04-27 21:02:00,62.0,39.0,30.24,SE,129,1.0,4.0,42,0.00,,,0.00,,2013-04-28 01:02:00,
2013-04-27 21:11:00,62.0,39.0,30.24,SE,129,1.0,4.0,42,0.00,,,0.00,,2013-04-28 01:11:00,
2013-04-27 21:22:00,60.0,38.0,30.25,SE,130,0.0,4.0,44,0.00,,,0.00,,2013-04-28 01:22:00,
2013-04-27 21:32:00,60.0,38.0,30.25,SE,130,0.0,4.0,44,0.00,,,0.00,,2013-04-28 01:32:00,
2013-04-27 21:42:00,60.0,38.0,30.25,SE,130,0.0,4.0,44,0.00,,,0.00,,2013-04-28 01:42:00,
2013-04-27 21:52:00,59.0,38.0,30.25,SE,134,1.0,5.0,46,0.00,,,0.00,,2013-04-28 01:52:00,
2013-04-27 22:02:00,59.0,38.0,30.25,SE,134,1.0,5.0,46,0.00,,,0.00,,2013-04-28 02:02:00,
2013-04-27 22:12:00,59.0,38.0,30.25,SE,134,1.0,5.0,46,0.00,,,0.00,,2013-04-28 02:12:00,
2013-04-27 22:22:00,58.0,38.0,30.25,ESE,121,0.0,6.0,47,0.00,,,0.00,,2013-04-28 02:22:00,
2013-04-27 22:32:00,58.0,38.0,30.25,ESE,121,0.0,6.0,47,0.00,,,0.00,,2013-04-28 02:32:00,
2013-04-27 22:42:00,58.0,38.0,30.25,ESE,121,0.0,6.0,47,0.00,,,0.00,,2013-04-28 02:42:00,
2013-04-27 22:52:00,56.0,37.0,30.26,ESE,123,1.0,4.0,48,0.00,,,0.00,,2013-04-28 02:52:00,
2013-04-27 23:01:00,56.0,37.0,30.26,ESE,123,1.0,4.0,48,0.00,,,0.00,,2013-04-28 03:01:00,
2013-04-27 23:11:00,56.0,37.0,30.26,ESE,123,1.0,4.0,48,0.00,,,0.00,,2013-04-28 03:11:00,
2013-04-27 23:21:00,55.0,39.0,30.25,ESE,123,0.0,1.0,55,0.00,,,0.00,,2013-04-28 03:21:00,
2013-04-27 23:33:00,55.0,39.0,30.25,ESE,123,0.0,1.0,55,0.00,,,0.00,,2013-04-28 03:33:00,
2013-04-27 23:43:00,55.0,39.0,30.25,ESE,123,0.0,1.0,55,0.00,,,0.00,,2013-04-28 03:43:00,
2013-04-27 23:53:00,52.0,40.0,30.24,ESE,123,0.0,2.0,63,0.00,,,0.00,,2013-04-28 03:53:00,